Time,TemperatureF,DewpointF,PressureIn,WindDirection,WindDirectionDegrees,WindSpeedMPH,WindSpeedGustMPH,Humidity,HourlyPrecipIn,Conditions,Clouds,dailyrainin,SoftwareType,DateUTC
2013-11-28 00:01:00,22.1,-99.9,29.85,WNW,302,4.0,6.3,-999,-99.99,,,-99.99,perl,2013-11-28 05:01:00,
2013-11-28 00:02:00,22.1,-99.9,29.85,NNW,338,4.7,5.4,-999,-99.99,,,-99.99,perl,2013-11-28 05:02:00,
2013-11-28 00:03:00,22.1,-99.9,29.85,WNW,297,4.3,4.3,-999,-99.99,,,-99.99,perl,2013-11-28 05:03:00,
2013-11-28 00:04:00,22.1,-99.9,29.85,NW,306,3.4,5.8,-999,-99.99,,,-99.99,perl,2013-11-28 05:04:00,
2013-11-28 00:08:00,22.1,-99.9,29.85,NW,305,5.5,9.6,-999,-99.99,,,-99.99,perl,2013-11-28 05:08:00,
2013-11-28 00:09:00,22.1,-99.9,29.85,WNW,300,5.4,8.3,-999,-99.99,,,-99.99,perl,2013-11-28 05:09:00,
2013-11-28 00:14:00,22.1,-99.9,29.85,WNW,293,5.8,5.8,-999,-99.99,,,-99.99,perl,2013-11-28 05:14:00,
2013-11-28 00:19:00,22.1,-99.9,29.85,WNW,292,5.5,6.7,-999,-99.99,,,-99.99,perl,2013-11-28 05:19:00,
2013-11-28 00:24:00,21.9,-99.9,29.88,West,281,6.0,7.6,-999,-99.99,,,-99.99,perl,2013-11-28 05:24:00,
2013-11-28 00:29:00,22.1,-99.9,29.88,NW,320,5.9,8.1,-999,-99.99,,,-99.99,perl,2013-11-28 05:29:00,
2013-11-28 00:34:00,22.1,-99.9,29.88,NW,305,5.8,5.8,-999,-99.99,,,-99.99,perl,2013-11-28 05:34:00,
2013-11-28 00:39:00,22.1,-99.9,29.88,NW,310,5.2,6.3,-999,-99.99,,,-99.99,perl,2013-11-28 05:39:00,
2013-11-28 00:44:00,22.1,-99.9,29.88,NW,324,5.7,6.7,-999,-99.99,,,-99.99,perl,2013-11-28 05:44:00,
2013-11-28 00:49:00,22.1,-99.9,29.88,NW,324,5.5,5.8,-999,-99.99,,,-99.99,perl,2013-11-28 05:49:00,
2013-11-28 00:55:00,22.1,-99.9,29.91,NW,316,4.3,5.8,-999,-99.99,,,-99.99,perl,2013-11-28 05:55:00,
2013-11-28 01:00:00,22.1,-99.9,29.91,WNW,289,4.1,5.4,-999,-99.99,,,-99.99,perl,2013-11-28 06:00:00,
2013-11-28 01:05:00,22.1,-99.9,29.91,WNW,297,5.3,5.3,-999,-99.99,,,-99.99,perl,2013-11-28 06:05:00,
2013-11-28 01:10:00,22.1,-99.9,29.91,WNW,292,5.4,6.7,-999,-99.99,,,-99.99,perl,2013-11-28 06:10:00,
2013-11-28 01:15:00,21.9,-99.9,29.91,WSW,255,5.4,8.7,-999,-99.99,,,-99.99,perl,2013-11-28 06:15:00,
2013-11-28 01:20:00,21.9,-99.9,29.91,NW,308,4.5,6.3,-999,-99.99,,,-99.99,perl,2013-11-28 06:20:00,
2013-11-28 01:25:00,21.9,-99.9,29.91,WNW,297,4.7,5.4,-999,-99.99,,,-99.99,perl,2013-11-28 06:25:00,
2013-11-28 01:30:00,21.9,-99.9,29.91,WNW,299,3.7,5.8,-999,-99.99,,,-99.99,perl,2013-11-28 06:30:00,
2013-11-28 01:36:00,21.9,-99.9,29.94,NW,319,3.1,5.4,-999,-99.99,,,-99.99,perl,2013-11-28 06:36:00,
2013-11-28 01:41:00,21.7,-99.9,29.94,NNW,334,0.9,0.0,-999,-99.99,,,-99.99,perl,2013-11-28 06:41:00,
2013-11-28 01:46:00,21.7,-99.9,29.94,NNW,334,0.0,0.0,-999,-99.99,,,-99.99,perl,2013-11-28 06:46:00,
2013-11-28 01:51:00,21.7,-99.9,29.94,WNW,302,0.0,0.0,-999,-99.99,,,-99.99,perl,2013-11-28 06:51:00,
2013-11-28 01:56:00,21.6,-99.9,29.94,WNW,298,2.7,3.6,-999,-99.99,,,-99.99,perl,2013-11-28 06:56:00,
2013-11-28 02:01:00,21.6,-99.9,29.94,NW,314,3.9,4.0,-999,-99.99,,,-99.99,perl,2013-11-28 07:01:00,
2013-11-28 02:06:00,21.4,-99.9,29.97,WNW,285,3.6,5.4,-999,-99.99,,,-99.99,perl,2013-11-28 07:06:00,
2013-11-28 02:11:00,21.2,-99.9,29.97,NNW,347,0.8,0.0,-999,-99.99,,,-99.99,perl,2013-11-28 07:11:00,
2013-11-28 02:17:00,21.2,-99.9,29.97,NW,315,4.3,4.3,-999,-99.99,,,-99.99,perl,2013-11-28 07:17:00,
2013-11-28 02:22:00,21.2,-99.9,29.97,NNW,336,3.4,5.4,-999,-99.99,,,-99.99,perl,2013-11-28 07:22:00,
2013-11-28 02:27:00,21.2,-99.9,29.97,NNW,345,3.6,4.0,-999,-99.99,,,-99.99,perl,2013-11-28 07:27:00,
2013-11-28 02:32:00,21.0,-99.9,29.97,WNW,295,3.0,4.9,-999,-99.99,,,-99.99,perl,2013-11-28 07:32:00,
2013-11-28 02:37:00,21.0,-99.9,30.00,NNW,340,4.4,4.9,-999,-99.99,,,-99.99,perl,2013-11-28 07:37:00,
2013-11-28 02:42:00,20.8,-99.9,30.00,NW,311,3.8,4.9,-999,-99.99,,,-99.99,perl,2013-11-28 07:42:00,
2013-11-28 02:47:00,20.8,-99.9,30.00,NW,313,3.7,5.8,-999,-99.99,,,-99.99,perl,2013-11-28 07:47:00,
2013-11-28 02:52:00,20.7,-99.9,30.00,NW,321,4.0,4.9,-999,-99.99,,,-99.99,perl,2013-11-28 07:52:00,
2013-11-28 02:57:00,20.7,-99.9,30.00,NW,316,4.0,4.0,-999,-99.99,,,-99.99,perl,2013-11-28 07:57:00,
2013-11-28 03:02:00,20.7,-99.9,30.00,NW,305,4.0,4.0,-999,-99.99,,,-99.99,perl,2013-11-28 08:02:00,
2013-11-28 03:07:00,20.5,-99.9,30.00,WNW,293,4.0,8.3,-999,-99.99,,,-99.99,perl,2013-11-28 08:07:00,
2013-11-28 03:12:00,20.5,-99.9,30.00,NW,310,3.2,4.9,-999,-99.99,,,-99.99,perl,2013-11-28 08:12:00,
2013-11-28 03:17:00,20.5,-99.9,30.00,NW,308,3.8,3.8,-999,-99.99,,,-99.99,perl,2013-11-28 08:17:00,
2013-11-28 03:23:00,20.3,-99.9,30.03,WNW,290,4.0,4.0,-999,-99.99,,,-99.99,perl,2013-11-28 08:23:00,
2013-11-28 03:28:00,20.3,-99.9,30.03,WNW,300,3.4,5.4,-999,-99.99,,,-99.99,perl,2013-11-28 08:28:00,
2013-11-28 03:34:00,20.3,-99.9,30.03,NW,322,3.2,4.9,-999,-99.99,,,-99.99,perl,2013-11-28 08:34:00,
2013-11-28 03:39:00,20.3,-99.9,30.03,WNW,295,4.0,5.4,-999,-99.99,,,-99.99,perl,2013-11-28 08:39:00,
2013-11-28 03:44:00,20.3,-99.9,30.03,NW,312,3.1,3.6,-999,-99.99,,,-99.99,perl,2013-11-28 08:44:00,
2013-11-28 03:49:00,20.3,-99.9,30.03,NW,324,2.2,3.6,-999,-99.99,,,-99.99,perl,2013-11-28 08:49:00,
2013-11-28 03:54:00,20.5,-99.9,30.03,NW,323,0.0,0.0,-999,-99.99,,,-99.99,perl,2013-11-28 08:54:00,
2013-11-28 04:00:00,20.5,-99.9,30.03,WNW,293,0.0,0.0,-999,-99.99,,,-99.99,perl,2013-11-28 09:00:00,
2013-11-28 04:05:00,20.5,-99.9,30.06,WNW,288,0.0,0.0,-999,-99.99,,,-99.99,perl,2013-11-28 09:05:00,
2013-11-28 04:10:00,20.5,-99.9,30.06,WNW,286,0.0,0.0,-999,-99.99,,,-99.99,perl,2013-11-28 09:10:00,
2013-11-28 04:15:00,20.5,-99.9,30.06,WNW,292,2.0,4.0,-999,-99.99,,,-99.99,perl,2013-11-28 09:15:00,
2013-11-28 04:20:00,20.3,-99.9,30.06,West,278,2.5,4.0,-999,-99.99,,,-99.99,perl,2013-11-28 09:20:00,
2013-11-28 04:25:00,20.3,-99.9,30.06,WNW,303,3.7,4.9,-999,-99.99,,,-99.99,perl,2013-11-28 09:25:00,
2013-11-28 04:30:00,20.1,-99.9,30.06,NNW,327,0.9,0.0,-999,-99.99,,,-99.99,perl,2013-11-28 09:30:00,
2013-11-28 04:35:00,20.1,-99.9,30.06,WNW,290,2.5,2.5,-999,-99.99,,,-99.99,perl,2013-11-28 09:35:00,
2013-11-28 04:40:00,19.9,-99.9,30.06,WNW,294,1.1,3.6,-999,-99.99,,,-99.99,perl,2013-11-28 09:40:00,
2013-11-28 04:45:00,19.9,-99.9,30.06,WNW,292,2.6,3.1,-999,-99.99,,,-99.99,perl,2013-11-28 09:45:00,
2013-11-28 04:50:00,19.9,-99.9,30.08,West,273,3.6,3.6,-999,-99.99,,,-99.99,perl,2013-11-28 09:50:00,
2013-11-28 04:56:00,19.9,-99.9,30.08,WNW,300,2.6,3.1,-999,-99.99,,,-99.99,perl,2013-11-28 09:56:00,
2013-11-28 05:01:00,19.9,-99.9,30.08,NW,319,0.0,0.0,-999,-99.99,,,-99.99,perl,2013-11-28 10:01:00,
2013-11-28 05:06:00,19.9,-99.9,30.08,NW,317,0.0,0.0,-999,-99.99,,,-99.99,perl,2013-11-28 10:06:00,
2013-11-28 05:11:00,19.9,-99.9,30.08,WNW,303,0.0,0.0,-999,-99.99,,,-99.99,perl,2013-11-28 10:11:00,
2013-11-28 05:17:00,19.9,-99.9,30.08,West,281,0.0,0.0,-999,-99.99,,,-99.99,perl,2013-11-28 10:17:00,
2013-11-28 05:22:00,19.9,-99.9,30.11,West,278,0.0,0.0,-999,-99.99,,,-99.99,perl,2013-11-28 10:22:00,
2013-11-28 05:27:00,20.1,-99.9,30.11,WNW,298,0.0,0.0,-999,-99.99,,,-99.99,perl,2013-11-28 10:27:00,
2013-11-28 05:32:00,20.1,-99.9,30.11,WNW,292,0.0,0.0,-999,-99.99,,,-99.99,perl,2013-11-28 10:32:00,
2013-11-28 05:37:00,20.1,-99.9,30.11,WNW,284,1.6,4.0,-999,-99.99,,,-99.99,perl,2013-11-28 10:37:00,
2013-11-28 05:42:00,20.1,-99.9,30.11,West,279,0.0,0.0,-999,-99.99,,,-99.99,perl,2013-11-28 10:42:00,
2013-11-28 05:47:00,20.1,-99.9,30.11,West,274,0.0,2.7,-999,-99.99,,,-99.99,perl,2013-11-28 10:47:00,
2013-11-28 05:52:00,19.9,-99.9,30.14,West,273,0.0,2.7,-999,-99.99,,,-99.99,perl,2013-11-28 10:52:00,
2013-11-28 05:57:00,19.9,-99.9,30.14,West,264,0.0,0.0,-999,-99.99,,,-99.99,perl,2013-11-28 10:57:00,
2013-11-28 06:02:00,19.8,-99.9,30.14,West,272,0.0,0.0,-999,-99.99,,,-99.99,perl,2013-11-28 11:02:00,
2013-11-28 06:07:00,19.6,-99.9,30.14,West,277,0.0,0.0,-999,-99.99,,,-99.99,perl,2013-11-28 11:07:00,
2013-11-28 06:12:00,19.6,-99.9,30.14,WNW,288,0.9,0.0,-999,-99.99,,,-99.99,perl,2013-11-28 11:12:00,
2013-11-28 06:17:00,19.4,-99.9,30.14,WSW,240,0.0,0.0,-999,-99.99,,,-99.99,perl,2013-11-28 11:17:00,
2013-11-28 06:22:00,19.0,-99.9,30.14,West,272,0.0,0.0,-999,-99.99,,,-99.99,perl,2013-11-28 11:22:00,
2013-11-28 06:28:00,18.9,-99.9,30.14,WNW,291,0.6,3.6,-999,-99.99,,,-99.99,perl,2013-11-28 11:28:00,
2013-11-28 06:33:00,18.7,-99.9,30.14,West,260,0.0,0.0,-999,-99.99,,,-99.99,perl,2013-11-28 11:33:00,
2013-11-28 06:38:00,18.7,-99.9,30.17,West,265,0.0,0.0,-999,-99.99,,,-99.99,perl,2013-11-28 11:38:00,
2013-11-28 06:43:00,18.5,-99.9,30.17,West,276,0.0,0.0,-999,-99.99,,,-99.99,perl,2013-11-28 11:43:00,
2013-11-28 06:48:00,18.3,-99.9,30.17,West,275,0.0,0.0,-999,-99.99,,,-99.99,perl,2013-11-28 11:48:00,
2013-11-28 06:53:00,18.0,-99.9,30.17,West,263,0.0,0.0,-999,-99.99,,,-99.99,perl,2013-11-28 11:53:00,
2013-11-28 06:58:00,17.6,-99.9,30.17,West,279,0.0,4.5,-999,-99.99,,,-99.99,perl,2013-11-28 11:58:00,
2013-11-28 07:03:00,17.4,-99.9,30.17,WSW,252,0.6,2.2,-999,-99.99,,,-99.99,perl,2013-11-28 12:03:00,
2013-11-28 07:08:00,17.2,-99.9,30.17,WSW,258,0.0,0.0,-999,-99.99,,,-99.99,perl,2013-11-28 12:08:00,
2013-11-28 07:13:00,17.1,-99.9,30.17,West,259,0.0,0.0,-999,-99.99,,,-99.99,perl,2013-11-28 12:13:00,
2013-11-28 07:18:00,16.9,-99.9,30.17,WSW,258,0.0,0.0,-999,-99.99,,,-99.99,perl,2013-11-28 12:18:00,
2013-11-28 07:23:00,16.7,-99.9,30.17,West,278,0.0,0.0,-999,-99.99,,,-99.99,perl,2013-11-28 12:23:00,
2013-11-28 07:28:00,16.3,-99.9,30.17,West,278,0.0,0.0,-999,-99.99,,,-99.99,perl,2013-11-28 12:28:00,
2013-11-28 07:33:00,16.2,-99.9,30.17,West,275,0.0,0.0,-999,-99.99,,,-99.99,perl,2013-11-28 12:33:00,
2013-11-28 07:38:00,16.0,-99.9,30.20,WNW,293,0.0,3.1,-999,-99.99,,,-99.99,perl,2013-11-28 12:38:00,
2013-11-28 07:43:00,15.8,-99.9,30.20,West,263,1.6,4.0,-999,-99.99,,,-99.99,perl,2013-11-28 12:43:00,
2013-11-28 07:48:00,15.8,-99.9,30.20,West,264,0.0,0.0,-999,-99.99,,,-99.99,perl,2013-11-28 12:48:00,
2013-11-28 07:53:00,15.8,-99.9,30.20,West,264,0.0,0.0,-999,-99.99,,,-99.99,perl,2013-11-28 12:53:00,
2013-11-28 07:58:00,16.0,-99.9,30.20,WNW,283,0.9,3.6,-999,-99.99,,,-99.99,perl,2013-11-28 12:58:00,
2013-11-28 08:03:00,16.0,-99.9,30.20,WNW,285,2.5,3.6,-999,-99.99,,,-99.99,perl,2013-11-28 13:03:00,
2013-11-28 08:08:00,16.3,-99.9,30.20,West,269,2.3,5.8,-999,-99.99,,,-99.99,perl,2013-11-28 13:08:00,
2013-11-28 08:13:00,16.5,-99.9,30.20,West,267,2.8,3.6,-999,-99.99,,,-99.99,perl,2013-11-28 13:13:00,
2013-11-28 08:19:00,16.9,-99.9,30.20,West,261,3.0,4.5,-999,-99.99,,,-99.99,perl,2013-11-28 13:19:00,
2013-11-28 08:24:00,17.1,-99.9,30.23,West,260,3.4,5.4,-999,-99.99,,,-99.99,perl,2013-11-28 13:24:00,
2013-11-28 08:29:00,17.1,-99.9,30.23,WSW,239,2.7,3.6,-999,-99.99,,,-99.99,perl,2013-11-28 13:29:00,
2013-11-28 08:34:00,17.4,-99.9,30.23,West,278,3.4,5.8,-999,-99.99,,,-99.99,perl,2013-11-28 13:34:00,
2013-11-28 08:39:00,17.6,-99.9,30.23,West,267,2.8,4.0,-999,-99.99,,,-99.99,perl,2013-11-28 13:39:00,
2013-11-28 08:45:00,17.8,-99.9,30.23,WSW,257,4.7,6.3,-999,-99.99,,,-99.99,perl,2013-11-28 13:45:00,
2013-11-28 08:50:00,18.1,-99.9,30.23,West,260,3.7,3.7,-999,-99.99,,,-99.99,perl,2013-11-28 13:50:00,
2013-11-28 08:56:00,18.3,-99.9,30.23,WSW,250,5.0,5.4,-999,-99.99,,,-99.99,perl,2013-11-28 13:56:00,
2013-11-28 09:01:00,18.7,-99.9,30.23,West,265,4.6,5.8,-999,-99.99,,,-99.99,perl,2013-11-28 14:01:00,
2013-11-28 09:06:00,18.9,-99.9,30.23,WNW,282,5.4,6.3,-999,-99.99,,,-99.99,perl,2013-11-28 14:06:00,
2013-11-28 09:12:00,19.4,-99.9,30.23,WSW,257,4.3,8.1,-999,-99.99,,,-99.99,perl,2013-11-28 14:12:00,
2013-11-28 09:17:00,19.6,-99.9,30.23,WSW,247,3.8,5.4,-999,-99.99,,,-99.99,perl,2013-11-28 14:17:00,
2013-11-28 09:22:00,19.9,-99.9,30.23,West,271,5.0,5.8,-999,-99.99,,,-99.99,perl,2013-11-28 14:22:00,
2013-11-28 09:27:00,20.1,-99.9,30.23,West,271,4.0,4.9,-999,-99.99,,,-99.99,perl,2013-11-28 14:27:00,
2013-11-28 09:34:00,20.5,-99.9,30.23,West,276,4.3,6.7,-999,-99.99,,,-99.99,perl,2013-11-28 14:34:00,
2013-11-28 09:39:00,20.8,-99.9,30.26,WNW,290,4.8,4.9,-999,-99.99,,,-99.99,perl,2013-11-28 14:39:00,
2013-11-28 09:44:00,20.8,-99.9,30.26,WSW,251,3.7,3.7,-999,-99.99,,,-99.99,perl,2013-11-28 14:44:00,
2013-11-28 09:49:00,21.2,-99.9,30.26,West,275,3.0,8.7,-999,-99.99,,,-99.99,perl,2013-11-28 14:49:00,
2013-11-28 09:54:00,21.4,-99.9,30.26,WSW,257,5.6,6.3,-999,-99.99,,,-99.99,perl,2013-11-28 14:54:00,
2013-11-28 09:59:00,21.7,-99.9,30.26,West,269,3.1,3.6,-999,-99.99,,,-99.99,perl,2013-11-28 14:59:00,
2013-11-28 10:04:00,22.1,-99.9,30.26,WSW,257,2.3,6.3,-999,-99.99,,,-99.99,perl,2013-11-28 15:04:00,
2013-11-28 10:10:00,22.5,-99.9,30.26,West,279,3.9,5.4,-999,-99.99,,,-99.99,perl,2013-11-28 15:10:00,
2013-11-28 10:16:00,22.8,-99.9,30.26,West,271,4.3,6.3,-999,-99.99,,,-99.99,perl,2013-11-28 15:16:00,
2013-11-28 10:21:00,23.2,-99.9,30.26,West,270,3.9,4.9,-999,-99.99,,,-99.99,perl,2013-11-28 15:21:00,
2013-11-28 10:26:00,23.2,-99.9,30.26,West,274,6.0,8.3,-999,-99.99,,,-99.99,perl,2013-11-28 15:26:00,
2013-11-28 10:31:00,23.4,-99.9,30.26,WSW,240,3.5,3.6,-999,-99.99,,,-99.99,perl,2013-11-28 15:31:00,
2013-11-28 10:36:00,23.4,-99.9,30.26,West,272,2.9,3.6,-999,-99.99,,,-99.99,perl,2013-11-28 15:36:00,
2013-11-28 10:41:00,23.4,-99.9,30.26,NW,306,5.1,5.1,-999,-99.99,,,-99.99,perl,2013-11-28 15:41:00,
2013-11-28 10:47:00,23.5,-99.9,30.26,West,261,4.4,5.8,-999,-99.99,,,-99.99,perl,2013-11-28 15:47:00,
2013-11-28 10:52:00,23.7,-99.9,30.26,West,265,4.3,7.6,-999,-99.99,,,-99.99,perl,2013-11-28 15:52:00,
2013-11-28 10:57:00,23.9,-99.9,30.26,WSW,242,4.5,5.4,-999,-99.99,,,-99.99,perl,2013-11-28 15:57:00,
2013-11-28 11:02:00,24.1,-99.9,30.26,WNW,282,3.7,3.7,-999,-99.99,,,-99.99,perl,2013-11-28 16:02:00,
2013-11-28 11:07:00,24.4,-99.9,30.26,WNW,303,4.7,7.6,-999,-99.99,,,-99.99,perl,2013-11-28 16:07:00,
2013-11-28 11:12:00,24.6,-99.9,30.26,West,261,4.5,5.8,-999,-99.99,,,-99.99,perl,2013-11-28 16:12:00,
2013-11-28 11:17:00,24.6,-99.9,30.26,SW,231,4.7,5.8,-999,-99.99,,,-99.99,perl,2013-11-28 16:17:00,
2013-11-28 11:22:00,24.4,-99.9,30.26,West,259,6.2,6.2,-999,-99.99,,,-99.99,perl,2013-11-28 16:22:00,
2013-11-28 11:27:00,24.6,-99.9,30.26,West,279,6.1,6.1,-999,-99.99,,,-99.99,perl,2013-11-28 16:27:00,
2013-11-28 11:32:00,24.8,-99.9,30.26,NW,312,5.4,8.1,-999,-99.99,,,-99.99,perl,2013-11-28 16:32:00,
2013-11-28 11:37:00,24.3,-99.9,30.26,West,269,7.4,10.5,-999,-99.99,,,-99.99,perl,2013-11-28 16:37:00,
2013-11-28 11:42:00,24.4,-99.9,30.26,West,261,6.6,8.3,-999,-99.99,,,-99.99,perl,2013-11-28 16:42:00,
2013-11-28 11:47:00,24.8,-99.9,30.26,NW,312,3.6,4.9,-999,-99.99,,,-99.99,perl,2013-11-28 16:47:00,
2013-11-28 11:53:00,24.8,-99.9,30.26,West,274,4.6,8.7,-999,-99.99,,,-99.99,perl,2013-11-28 16:53:00,
2013-11-28 11:58:00,24.8,-99.9,30.26,WNW,303,5.6,8.1,-999,-99.99,,,-99.99,perl,2013-11-28 16:58:00,
2013-11-28 12:03:00,25.0,-99.9,30.26,West,272,4.4,8.3,-999,-99.99,,,-99.99,perl,2013-11-28 17:03:00,
2013-11-28 12:08:00,24.4,-99.9,30.26,WSW,258,4.7,7.2,-999,-99.99,,,-99.99,perl,2013-11-28 17:08:00,
2013-11-28 12:13:00,24.4,-99.9,30.26,WNW,289,5.4,8.1,-999,-99.99,,,-99.99,perl,2013-11-28 17:13:00,
2013-11-28 12:18:00,24.4,-99.9,30.26,West,270,4.0,4.0,-999,-99.99,,,-99.99,perl,2013-11-28 17:18:00,
2013-11-28 12:23:00,24.6,-99.9,30.26,West,276,3.9,5.8,-999,-99.99,,,-99.99,perl,2013-11-28 17:23:00,
2013-11-28 12:28:00,24.6,-99.9,30.26,SW,232,5.4,5.8,-999,-99.99,,,-99.99,perl,2013-11-28 17:28:00,
2013-11-28 12:33:00,24.8,-99.9,30.26,WSW,253,4.0,5.8,-999,-99.99,,,-99.99,perl,2013-11-28 17:33:00,
2013-11-28 12:38:00,25.2,-99.9,30.26,WSW,242,3.6,4.0,-999,-99.99,,,-99.99,perl,2013-11-28 17:38:00,
2013-11-28 12:43:00,25.2,-99.9,30.26,West,271,4.3,6.3,-999,-99.99,,,-99.99,perl,2013-11-28 17:43:00,
2013-11-28 12:48:00,25.3,-99.9,30.26,WSW,240,4.1,5.4,-999,-99.99,,,-99.99,perl,2013-11-28 17:48:00,
2013-11-28 12:53:00,25.3,-99.9,30.26,West,264,3.9,7.6,-999,-99.99,,,-99.99,perl,2013-11-28 17:53:00,
2013-11-28 12:58:00,25.7,-99.9,30.26,West,278,4.4,4.4,-999,-99.99,,,-99.99,perl,2013-11-28 17:58:00,
2013-11-28 13:03:00,25.9,-99.9,30.26,SW,232,5.7,8.3,-999,-99.99,,,-99.99,perl,2013-11-28 18:03:00,
2013-11-28 13:08:00,26.1,-99.9,30.26,WNW,295,3.9,4.0,-999,-99.99,,,-99.99,perl,2013-11-28 18:08:00,
2013-11-28 13:15:00,25.7,-99.9,30.26,WSW,247,4.9,5.8,-999,-99.99,,,-99.99,perl,2013-11-28 18:15:00,
2013-11-28 13:20:00,25.7,-99.9,30.26,West,264,5.6,9.2,-999,-99.99,,,-99.99,perl,2013-11-28 18:20:00,
2013-11-28 13:25:00,25.5,-99.9,30.26,WSW,253,6.3,11.0,-999,-99.99,,,-99.99,perl,2013-11-28 18:25:00,
2013-11-28 13:30:00,25.3,-99.9,30.26,WSW,241,7.2,10.5,-999,-99.99,,,-99.99,perl,2013-11-28 18:30:00,
2013-11-28 13:35:00,25.3,-99.9,30.26,West,270,5.1,6.3,-999,-99.99,,,-99.99,perl,2013-11-28 18:35:00,
2013-11-28 13:40:00,25.9,-99.9,30.26,West,270,3.3,4.9,-999,-99.99,,,-99.99,perl,2013-11-28 18:40:00,
2013-11-28 13:45:00,26.1,-99.9,30.26,WSW,246,3.1,4.0,-999,-99.99,,,-99.99,perl,2013-11-28 18:45:00,
2013-11-28 13:50:00,26.4,-99.9,30.26,West,274,5.5,6.7,-999,-99.99,,,-99.99,perl,2013-11-28 18:50:00,
2013-11-28 13:55:00,26.8,-99.9,30.26,West,278,3.1,3.6,-999,-99.99,,,-99.99,perl,2013-11-28 18:55:00,
2013-11-28 14:00:00,26.8,-99.9,30.26,WSW,252,4.5,4.5,-999,-99.99,,,-99.99,perl,2013-11-28 19:00:00,
2013-11-28 14:05:00,26.8,-99.9,30.26,WNW,300,2.8,3.6,-999,-99.99,,,-99.99,perl,2013-11-28 19:05:00,
2013-11-28 14:10:00,26.6,-99.9,30.26,NW,315,3.1,3.6,-999,-99.99,,,-99.99,perl,2013-11-28 19:10:00,
2013-11-28 14:15:00,26.8,-99.9,30.26,NW,312,3.4,4.0,-999,-99.99,,,-99.99,perl,2013-11-28 19:15:00,
2013-11-28 14:21:00,26.6,-99.9,30.26,West,275,3.6,5.8,-999,-99.99,,,-99.99,perl,2013-11-28 19:21:00,
2013-11-28 14:26:00,26.6,-99.9,30.26,West,259,2.7,3.1,-999,-99.99,,,-99.99,perl,2013-11-28 19:26:00,
2013-11-28 14:31:00,26.4,-99.9,30.26,West,263,2.7,5.8,-999,-99.99,,,-99.99,perl,2013-11-28 19:31:00,
2013-11-28 14:36:00,26.6,-99.9,30.26,WSW,250,4.2,5.4,-999,-99.99,,,-99.99,perl,2013-11-28 19:36:00,
2013-11-28 14:41:00,26.6,-99.9,30.26,WSW,256,0.7,3.6,-999,-99.99,,,-99.99,perl,2013-11-28 19:41:00,
2013-11-28 14:46:00,26.8,-99.9,30.26,NW,314,5.4,10.5,-999,-99.99,,,-99.99,perl,2013-11-28 19:46:00,
2013-11-28 14:51:00,27.0,-99.9,30.26,West,265,3.0,4.0,-999,-99.99,,,-99.99,perl,2013-11-28 19:51:00,
2013-11-28 14:56:00,27.0,-99.9,30.26,WSW,258,3.6,5.4,-999,-99.99,,,-99.99,perl,2013-11-28 19:56:00,
2013-11-28 15:01:00,27.1,-99.9,30.26,West,279,2.5,3.6,-999,-99.99,,,-99.99,perl,2013-11-28 20:01:00,
2013-11-28 15:06:00,27.1,-99.9,30.26,West,276,3.9,5.4,-999,-99.99,,,-99.99,perl,2013-11-28 20:06:00,
2013-11-28 15:11:00,27.0,-99.9,30.26,West,269,3.3,5.4,-999,-99.99,,,-99.99,perl,2013-11-28 20:11:00,
2013-11-28 15:16:00,27.0,-99.9,30.26,West,280,3.6,5.4,-999,-99.99,,,-99.99,perl,2013-11-28 20:16:00,
2013-11-28 15:21:00,27.0,-99.9,30.26,WNW,285,3.8,4.0,-999,-99.99,,,-99.99,perl,2013-11-28 20:21:00,
2013-11-28 15:26:00,26.8,-99.9,30.26,WNW,290,0.0,0.0,-999,-99.99,,,-99.99,perl,2013-11-28 20:26:00,
2013-11-28 15:31:00,26.4,-99.9,30.26,WNW,289,0.0,0.0,-999,-99.99,,,-99.99,perl,2013-11-28 20:31:00,
2013-11-28 15:36:00,26.2,-99.9,30.26,West,262,2.8,5.4,-999,-99.99,,,-99.99,perl,2013-11-28 20:36:00,
2013-11-28 15:41:00,26.1,-99.9,30.26,West,267,0.6,0.0,-999,-99.99,,,-99.99,perl,2013-11-28 20:41:00,
2013-11-28 15:47:00,25.9,-99.9,30.26,West,265,2.0,3.1,-999,-99.99,,,-99.99,perl,2013-11-28 20:47:00,
2013-11-28 15:52:00,25.9,-99.9,30.29,West,265,0.0,0.0,-999,-99.99,,,-99.99,perl,2013-11-28 20:52:00,
2013-11-28 15:57:00,25.7,-99.9,30.29,West,264,0.0,0.0,-999,-99.99,,,-99.99,perl,2013-11-28 20:57:00,
2013-11-28 16:02:00,25.7,-99.9,30.29,West,265,0.0,0.0,-999,-99.99,,,-99.99,perl,2013-11-28 21:02:00,
2013-11-28 16:07:00,25.7,-99.9,30.29,West,264,0.0,0.0,-999,-99.99,,,-99.99,perl,2013-11-28 21:07:00,
2013-11-28 16:12:00,25.5,-99.9,30.29,West,264,0.0,0.0,-999,-99.99,,,-99.99,perl,2013-11-28 21:12:00,
2013-11-28 16:17:00,25.5,-99.9,30.29,West,264,0.0,0.0,-999,-99.99,,,-99.99,perl,2013-11-28 21:17:00,
2013-11-28 16:22:00,25.3,-99.9,30.29,West,265,0.0,0.0,-999,-99.99,,,-99.99,perl,2013-11-28 21:22:00,
2013-11-28 16:27:00,25.3,-99.9,30.29,West,265,0.0,0.0,-999,-99.99,,,-99.99,perl,2013-11-28 21:27:00,
2013-11-28 16:32:00,25.3,-99.9,30.29,West,264,0.0,0.0,-999,-99.99,,,-99.99,perl,2013-11-28 21:32:00,
2013-11-28 16:37:00,25.3,-99.9,30.29,West,265,0.0,0.0,-999,-99.99,,,-99.99,perl,2013-11-28 21:37:00,
2013-11-28 16:42:00,25.2,-99.9,30.29,West,265,0.0,0.0,-999,-99.99,,,-99.99,perl,2013-11-28 21:42:00,
2013-11-28 16:47:00,25.0,-99.9,30.29,West,264,0.0,0.0,-999,-99.99,,,-99.99,perl,2013-11-28 21:47:00,
2013-11-28 16:52:00,25.0,-99.9,30.29,West,264,0.0,0.0,-999,-99.99,,,-99.99,perl,2013-11-28 21:52:00,
2013-11-28 16:57:00,24.8,-99.9,30.29,West,265,0.0,0.0,-999,-99.99,,,-99.99,perl,2013-11-28 21:57:00,
2013-11-28 17:02:00,24.8,-99.9,30.29,West,265,0.0,0.0,-999,-99.99,,,-99.99,perl,2013-11-28 22:02:00,
2013-11-28 17:07:00,24.6,-99.9,30.29,West,264,0.0,0.0,-999,-99.99,,,-99.99,perl,2013-11-28 22:07:00,
2013-11-28 17:13:00,24.6,-99.9,30.29,West,264,0.0,0.0,-999,-99.99,,,-99.99,perl,2013-11-28 22:13:00,
2013-11-28 17:18:00,24.6,-99.9,30.29,West,265,0.0,0.0,-999,-99.99,,,-99.99,perl,2013-11-28 22:18:00,
2013-11-28 17:23:00,24.8,-99.9,30.32,West,264,0.0,0.0,-999,-99.99,,,-99.99,perl,2013-11-28 22:23:00,
2013-11-28 17:28:00,24.8,-99.9,30.32,West,265,0.0,0.0,-999,-99.99,,,-99.99,perl,2013-11-28 22:28:00,
2013-11-28 17:34:00,24.6,-99.9,30.32,West,265,0.0,0.0,-999,-99.99,,,-99.99,perl,2013-11-28 22:34:00,
2013-11-28 17:39:00,24.4,-99.9,30.32,West,265,0.0,0.0,-999,-99.99,,,-99.99,perl,2013-11-28 22:39:00,
2013-11-28 17:44:00,24.4,-99.9,30.32,West,265,0.0,0.0,-999,-99.99,,,-99.99,perl,2013-11-28 22:44:00,
2013-11-28 17:49:00,24.3,-99.9,30.32,West,264,0.0,0.0,-999,-99.99,,,-99.99,perl,2013-11-28 22:49:00,
2013-11-28 17:55:00,24.3,-99.9,30.32,West,264,0.0,0.0,-999,-99.99,,,-99.99,perl,2013-11-28 22:55:00,
2013-11-28 18:00:00,24.1,-99.9,30.32,West,265,0.0,0.0,-999,-99.99,,,-99.99,perl,2013-11-28 23:00:00,
2013-11-28 18:05:00,24.1,-99.9,30.32,West,264,0.0,0.0,-999,-99.99,,,-99.99,perl,2013-11-28 23:05:00,
2013-11-28 18:10:00,23.9,-99.9,30.32,West,264,0.0,0.0,-999,-99.99,,,-99.99,perl,2013-11-28 23:10:00,
2013-11-28 18:15:00,23.9,-99.9,30.32,West,265,0.0,0.0,-999,-99.99,,,-99.99,perl,2013-11-28 23:15:00,
2013-11-28 18:20:00,23.7,-99.9,30.35,West,265,0.0,0.0,-999,-99.99,,,-99.99,perl,2013-11-28 23:20:00,
2013-11-28 18:25:00,23.7,-99.9,30.35,West,264,0.0,0.0,-999,-99.99,,,-99.99,perl,2013-11-28 23:25:00,
2013-11-28 18:30:00,23.5,-99.9,30.35,West,265,0.0,0.0,-999,-99.99,,,-99.99,perl,2013-11-28 23:30:00,
2013-11-28 18:35:00,23.5,-99.9,30.35,West,264,0.0,0.0,-999,-99.99,,,-99.99,perl,2013-11-28 23:35:00,
2013-11-28 18:40:00,23.4,-99.9,30.35,West,264,0.0,0.0,-999,-99.99,,,-99.99,perl,2013-11-28 23:40:00,
2013-11-28 18:45:00,23.2,-99.9,30.35,West,265,0.0,0.0,-999,-99.99,,,-99.99,perl,2013-11-28 23:45:00,
2013-11-28 18:50:00,23.0,-99.9,30.35,West,265,0.0,0.0,-999,-99.99,,,-99.99,perl,2013-11-28 23:50:00,
2013-11-28 18:55:00,22.8,-99.9,30.35,West,265,0.0,0.0,-999,-99.99,,,-99.99,perl,2013-11-28 23:55:00,
2013-11-28 19:01:00,22.8,-99.9,30.35,West,264,0.0,0.0,-999,-99.99,,,-99.99,perl,2013-11-29 00:01:00,
2013-11-28 19:06:00,22.6,-99.9,30.35,West,264,0.0,0.0,-999,-99.99,,,-99.99,perl,2013-11-29 00:06:00,
2013-11-28 19:12:00,22.5,-99.9,30.35,West,264,0.0,0.0,-999,-99.99,,,-99.99,perl,2013-11-29 00:12:00,
2013-11-28 19:17:00,22.3,-99.9,30.35,West,264,0.0,0.0,-999,-99.99,,,-99.99,perl,2013-11-29 00:17:00,
2013-11-28 19:23:00,22.1,-99.9,30.35,West,265,0.0,0.0,-999,-99.99,,,-99.99,perl,2013-11-29 00:23:00,
2013-11-28 19:28:00,22.1,-99.9,30.35,West,264,0.0,0.0,-999,-99.99,,,-99.99,perl,2013-11-29 00:28:00,
2013-11-28 19:33:00,21.9,-99.9,30.35,West,264,0.0,0.0,-999,-99.99,,,-99.99,perl,2013-11-29 00:33:00,
2013-11-28 19:38:00,21.9,-99.9,30.35,West,266,0.0,0.0,-999,-99.99,,,-99.99,perl,2013-11-29 00:38:00,
2013-11-28 19:43:00,21.7,-99.9,30.35,West,265,0.0,0.0,-999,-99.99,,,-99.99,perl,2013-11-29 00:43:00,
2013-11-28 19:49:00,21.7,-99.9,30.35,West,264,0.0,0.0,-999,-99.99,,,-99.99,perl,2013-11-29 00:49:00,
2013-11-28 19:54:00,21.6,-99.9,30.35,West,264,0.0,0.0,-999,-99.99,,,-99.99,perl,2013-11-29 00:54:00,
2013-11-28 19:59:00,21.6,-99.9,30.35,West,264,0.0,0.0,-999,-99.99,,,-99.99,perl,2013-11-29 00:59:00,
2013-11-28 20:04:00,21.6,-99.9,30.35,West,265,0.0,0.0,-999,-99.99,,,-99.99,perl,2013-11-29 01:04:00,
2013-11-28 20:09:00,21.6,-99.9,30.38,West,265,0.0,0.0,-999,-99.99,,,-99.99,perl,2013-11-29 01:09:00,
2013-11-28 20:14:00,21.6,-99.9,30.38,West,264,0.0,0.0,-999,-99.99,,,-99.99,perl,2013-11-29 01:14:00,
2013-11-28 20:19:00,21.6,-99.9,30.38,West,265,0.0,0.0,-999,-99.99,,,-99.99,perl,2013-11-29 01:19:00,
2013-11-28 20:24:00,21.6,-99.9,30.35,West,264,0.0,0.0,-999,-99.99,,,-99.99,perl,2013-11-29 01:24:00,
2013-11-28 20:29:00,21.6,-99.9,30.35,West,265,0.0,0.0,-999,-99.99,,,-99.99,perl,2013-11-29 01:29:00,
2013-11-28 20:34:00,21.6,-99.9,30.35,West,265,0.0,0.0,-999,-99.99,,,-99.99,perl,2013-11-29 01:34:00,
2013-11-28 20:39:00,21.7,-99.9,30.38,West,265,0.0,0.0,-999,-99.99,,,-99.99,perl,2013-11-29 01:39:00,
2013-11-28 20:44:00,21.7,-99.9,30.38,West,264,0.0,0.0,-999,-99.99,,,-99.99,perl,2013-11-29 01:44:00,
2013-11-28 20:49:00,21.7,-99.9,30.38,West,264,0.0,0.0,-999,-99.99,,,-99.99,perl,2013-11-29 01:49:00,
2013-11-28 20:54:00,21.9,-99.9,30.38,West,264,0.0,0.0,-999,-99.99,,,-99.99,perl,2013-11-29 01:54:00,
2013-11-28 21:00:00,21.9,-99.9,30.38,West,265,0.0,0.0,-999,-99.99,,,-99.99,perl,2013-11-29 02:00:00,
2013-11-28 21:05:00,21.9,-99.9,30.38,West,264,0.0,0.0,-999,-99.99,,,-99.99,perl,2013-11-29 02:05:00,
2013-11-28 21:10:00,21.9,-99.9,30.38,West,264,0.0,0.0,-999,-99.99,,,-99.99,perl,2013-11-29 02:10:00,
2013-11-28 21:15:00,21.9,-99.9,30.38,West,265,0.0,0.0,-999,-99.99,,,-99.99,perl,2013-11-29 02:15:00,
2013-11-28 21:20:00,21.9,-99.9,30.38,West,264,0.0,0.0,-999,-99.99,,,-99.99,perl,2013-11-29 02:20:00,
2013-11-28 21:25:00,22.1,-99.9,30.38,West,265,0.0,0.0,-999,-99.99,,,-99.99,perl,2013-11-29 02:25:00,
2013-11-28 21:30:00,22.1,-99.9,30.38,West,264,0.0,0.0,-999,-99.99,,,-99.99,perl,2013-11-29 02:30:00,
2013-11-28 21:35:00,22.1,-99.9,30.38,West,264,0.0,0.0,-999,-99.99,,,-99.99,perl,2013-11-29 02:35:00,
2013-11-28 21:40:00,22.3,-99.9,30.38,West,265,0.0,0.0,-999,-99.99,,,-99.99,perl,2013-11-29 02:40:00,
2013-11-28 21:45:00,22.3,-99.9,30.38,West,265,0.0,0.0,-999,-99.99,,,-99.99,perl,2013-11-29 02:45:00,
2013-11-28 21:50:00,22.3,-99.9,30.38,West,264,0.0,0.0,-999,-99.99,,,-99.99,perl,2013-11-29 02:50:00,
2013-11-28 21:55:00,22.3,-99.9,30.38,West,265,0.0,0.0,-999,-99.99,,,-99.99,perl,2013-11-29 02:55:00,
2013-11-28 22:00:00,22.3,-99.9,30.38,West,265,0.0,0.0,-999,-99.99,,,-99.99,perl,2013-11-29 03:00:00,
2013-11-28 22:05:00,22.1,-99.9,30.38,West,265,0.0,0.0,-999,-99.99,,,-99.99,perl,2013-11-29 03:05:00,
2013-11-28 22:10:00,22.1,-99.9,30.38,West,265,0.0,0.0,-999,-99.99,,,-99.99,perl,2013-11-29 03:10:00,
2013-11-28 22:15:00,22.1,-99.9,30.38,West,265,0.0,0.0,-999,-99.99,,,-99.99,perl,2013-11-29 03:15:00,
2013-11-28 22:20:00,22.3,-99.9,30.38,West,264,0.0,0.0,-999,-99.99,,,-99.99,perl,2013-11-29 03:20:00,
2013-11-28 22:25:00,22.3,-99.9,30.38,West,265,0.0,0.0,-999,-99.99,,,-99.99,perl,2013-11-29 03:25:00,
2013-11-28 22:30:00,22.3,-99.9,30.38,West,264,0.0,0.0,-999,-99.99,,,-99.99,perl,2013-11-29 03:30:00,
2013-11-28 22:35:00,22.3,-99.9,30.38,West,265,0.0,0.0,-999,-99.99,,,-99.99,perl,2013-11-29 03:35:00,
2013-11-28 22:40:00,22.1,-99.9,30.38,West,265,0.0,0.0,-999,-99.99,,,-99.99,perl,2013-11-29 03:40:00,
2013-11-28 22:45:00,22.1,-99.9,30.38,West,265,0.0,0.0,-999,-99.99,,,-99.99,perl,2013-11-29 03:45:00,
2013-11-28 22:51:00,22.1,-99.9,30.41,West,265,0.0,0.0,-999,-99.99,,,-99.99,perl,2013-11-29 03:51:00,
2013-11-28 22:56:00,21.9,-99.9,30.41,West,265,0.0,0.0,-999,-99.99,,,-99.99,perl,2013-11-29 03:56:00,
2013-11-28 23:01:00,21.9,-99.9,30.41,West,265,0.0,0.0,-999,-99.99,,,-99.99,perl,2013-11-29 04:01:00,
2013-11-28 23:06:00,21.9,-99.9,30.41,West,265,0.0,0.0,-999,-99.99,,,-99.99,perl,2013-11-29 04:06:00,
2013-11-28 23:11:00,21.9,-99.9,30.41,West,264,0.0,0.0,-999,-99.99,,,-99.99,perl,2013-11-29 04:11:00,
2013-11-28 23:16:00,21.9,-99.9,30.41,West,264,0.0,0.0,-999,-99.99,,,-99.99,perl,2013-11-29 04:16:00,
2013-11-28 23:21:00,21.9,-99.9,30.41,West,264,0.0,0.0,-999,-99.99,,,-99.99,perl,2013-11-29 04:21:00,
2013-11-28 23:26:00,21.9,-99.9,30.41,West,266,0.0,0.0,-999,-99.99,,,-99.99,perl,2013-11-29 04:26:00,
2013-11-28 23:31:00,21.9,-99.9,30.41,West,264,0.0,0.0,-999,-99.99,,,-99.99,perl,2013-11-29 04:31:00,
2013-11-28 23:36:00,21.9,-99.9,30.41,West,265,0.0,0.0,-999,-99.99,,,-99.99,perl,2013-11-29 04:36:00,
2013-11-28 23:42:00,21.9,-99.9,30.41,West,264,0.0,0.0,-999,-99.99,,,-99.99,perl,2013-11-29 04:42:00,
2013-11-28 23:47:00,21.9,-99.9,30.41,West,264,0.0,0.0,-999,-99.99,,,-99.99,perl,2013-11-29 04:47:00,
2013-11-28 23:52:00,22.1,-99.9,30.41,West,264,0.0,0.0,-999,-99.99,,,-99.99,perl,2013-11-29 04:52:00,
2013-11-28 23:57:00,22.1,-99.9,30.41,West,264,0.0,0.0,-999,-99.99,,,-99.99,perl,2013-11-29 04:57:00,